Time;durP1;ratioP1;P1;durP2;ratioP2;P2;SDS_P1;SDS_P2;PMS_P1;PMS_P2;Temp;Humidity;BMP_temperature;BMP_pressure;BME280_temperature;BME280_humidity;BME280_pressure;Samples;Min_cycle;Max_cycle;Signal;HPM_P1;HPM_P2
2022/05/03 00:01:32;;;;;;;29.80;15.88;;;;;;;4.55;59.30;101168.42;1652976;84;21235;-86
2022/05/03 00:04:32;;;;;;;21.62;13.98;;;;;;;4.57;59.41;101164.59;1638148;85;21025;-86
2022/05/03 00:07:24;;;;;;;16.87;9.55;;;;;;;4.58;59.64;101165.07;1607610;86;21803;-87
2022/05/03 00:09:59;;;;;;;12.33;7.30;;;;;;;4.59;59.82;101159.06;1612785;87;21253;-87
2022/05/03 00:12:34;;;;;;;13.60;7.10;;;;;;;4.62;60.06;101157.52;1579065;89;21960;-86
2022/05/03 00:15:16;;;;;;;11.95;6.00;;;;;;;4.65;60.17;101145.97;1631045;85;21126;-86
2022/05/03 00:17:43;;;;;;;8.60;5.58;;;;;;;4.70;60.32;101150.53;1607302;86;21485;-87
2022/05/03 00:20:10;;;;;;;12.40;5.85;;;;;;;4.73;60.41;101146.39;1618611;87;22645;-86
2022/05/03 00:22:44;;;;;;;10.75;6.30;;;;;;;4.76;60.50;101145.23;1603067;85;30421;-86
2022/05/03 00:25:12;;;;;;;14.93;7.00;;;;;;;4.82;60.63;101140.75;1600371;87;22386;-87
2022/05/03 00:27:39;;;;;;;10.63;5.65;;;;;;;4.87;60.64;101140.61;1571823;89;21147;-86
2022/05/03 00:30:08;;;;;;;10.55;6.05;;;;;;;4.91;60.71;101145.17;1562104;89;21646;-86
2022/05/03 00:32:35;;;;;;;13.35;7.28;;;;;;;4.97;60.72;101143.30;1572172;89;21858;-86
2022/05/03 00:35:02;;;;;;;9.70;5.37;;;;;;;5.00;60.71;101143.48;1599035;87;21992;-86
2022/05/03 00:37:29;;;;;;;10.43;6.15;;;;;;;5.04;60.80;101138.48;1559281;89;21211;-87
2022/05/03 00:39:55;;;;;;;11.28;6.58;;;;;;;5.10;60.83;101134.42;1582018;88;21253;-87
2022/05/03 00:42:40;;;;;;;9.80;6.03;;;;;;;5.15;60.88;101136.46;1607478;86;21149;-87
2022/05/03 00:45:29;;;;;;;6.05;5.03;;;;;;;5.20;60.92;101136.69;1642764;85;21814;-87
2022/05/03 00:48:03;;;;;;;13.05;6.50;;;;;;;5.23;60.85;101133.83;1625817;86;21136;-88
2022/05/03 00:50:47;;;;;;;8.45;6.17;;;;;;;5.26;60.88;101135.73;1596367;84;21551;-87
2022/05/03 00:53:29;;;;;;;9.93;5.97;;;;;;;5.27;60.93;101134.89;1643635;85;21705;-85
2022/05/03 00:56:19;;;;;;;10.65;6.08;;;;;;;5.30;61.00;101130.27;1634171;85;21163;-88
2022/05/03 00:59:09;;;;;;;11.40;5.90;;;;;;;5.31;61.07;101128.13;1612621;86;21854;-86
2022/05/03 01:02:06;;;;;;;10.70;6.72;;;;;;;5.33;61.12;101122.19;1635137;85;21455;-86
2022/05/03 01:04:50;;;;;;;10.80;6.62;;;;;;;5.35;61.19;101127.46;1659445;85;21121;-87
2022/05/03 01:07:36;;;;;;;8.75;6.22;;;;;;;5.35;61.22;101126.16;1605368;87;21102;-86
2022/05/03 01:10:06;;;;;;;10.48;6.65;;;;;;;5.35;61.23;101133.60;1660211;84;21222;-86
2022/05/03 01:12:59;;;;;;;19.95;6.40;;;;;;;5.37;61.23;101136.30;1615682;87;22388;-87
2022/05/03 01:15:28;;;;;;;14.43;6.47;;;;;;;5.36;61.32;101126.66;1639972;85;21332;-86
2022/05/03 01:18:20;;;;;;;14.38;5.92;;;;;;;5.37;61.37;101131.08;1648709;84;21233;-86
2022/05/03 01:21:18;;;;;;;11.03;6.90;;;;;;;5.38;61.44;101121.11;1644418;85;21734;-86
2022/05/03 01:24:25;;;;;;;11.63;7.20;;;;;;;5.39;61.44;101119.00;1656328;83;21214;-85
2022/05/03 01:27:29;;;;;;;11.45;6.20;;;;;;;5.41;61.45;101124.77;1669406;83;21824;-86
2022/05/03 01:30:00;;;;;;;;;;;;;;;5.41;61.51;101120.86;1662826;84;21112;-86
2022/05/03 01:32:26;;;;;;;8.70;6.35;;;;;;;5.43;61.65;101124.86;1678280;84;20242;-86
2022/05/03 01:34:53;;;;;;;8.28;6.42;;;;;;;5.42;61.58;101126.97;1674356;83;21127;-86
2022/05/03 01:37:43;;;;;;;11.35;6.72;;;;;;;5.39;61.56;101117.70;1679301;84;21666;-86
2022/05/03 01:40:18;;;;;;;11.68;5.83;;;;;;;5.38;61.66;101117.19;1657976;84;21773;-86
2022/05/03 01:43:14;;;;;;;12.25;6.35;;;;;;;5.37;61.66;101127.16;1644557;84;22457;-86
2022/05/03 01:46:06;;;;;;;12.50;7.45;;;;;;;5.34;61.70;101123.96;1597379;87;21662;-87
2022/05/03 01:52:25;;;;;;;12.23;7.35;;;;;;;5.29;61.87;101118.91;1611759;85;21083;-87
2022/05/03 01:55:41;;;;;;;10.98;6.80;;;;;;;5.28;61.97;101117.55;1584360;87;23215;-87
2022/05/03 01:58:50;;;;;;;9.50;6.55;;;;;;;5.25;62.03;101116.95;1635946;85;21150;-87
2022/05/03 02:01:46;;;;;;;10.28;6.22;;;;;;;5.22;62.11;101113.79;1668250;84;21528;-87
2022/05/03 02:04:12;;;;;;;10.00;6.00;;;;;;;5.22;62.23;101106.38;1661327;85;21167;-86
2022/05/03 02:06:57;;;;;;;8.30;5.45;;;;;;;5.22;62.33;101105.07;1642893;84;21209;-87
2022/05/03 02:10:03;;;;;;;8.63;5.65;;;;;;;5.23;62.45;101106.43;1623959;85;22048;-86
2022/05/03 02:12:30;;;;;;;7.85;6.00;;;;;;;5.24;62.45;101104.74;1627522;84;21107;-84
2022/05/03 02:15:09;;;;;;;14.18;6.30;;;;;;;5.25;62.58;101105.21;1655324;84;22083;-85
2022/05/03 02:18:05;;;;;;;6.83;5.10;;;;;;;5.26;62.68;101097.47;1617547;87;21530;-85
2022/05/03 02:20:46;;;;;;;7.65;5.70;;;;;;;5.29;62.76;101096.72;1631677;85;21099;-86
2022/05/03 02:23:18;;;;;;;10.13;5.97;;;;;;;5.34;62.85;101095.66;1659467;84;21833;-85
2022/05/03 02:26:11;;;;;;;9.03;5.50;;;;;;;5.37;62.91;101097.14;1619965;87;21566;-86
2022/05/03 02:28:45;;;;;;;8.00;5.45;;;;;;;5.38;62.94;101095.89;1613243;86;21073;-84
2022/05/03 02:31:14;;;;;;;;;;;;;;;5.40;63.13;101098.59;1665227;84;21631;-86
2022/05/03 02:34:00;;;;;;;10.63;6.05;;;;;;;5.43;63.37;101097.45;1648787;85;20192;-85
2022/05/03 02:36:27;;;;;;;8.83;6.42;;;;;;;5.50;63.27;101102.55;1656326;85;21798;-86
2022/05/03 02:39:01;;;;;;;8.80;6.15;;;;;;;5.54;63.36;101096.70;1651970;84;21172;-85
2022/05/03 02:41:28;;;;;;;9.08;5.87;;;;;;;5.59;63.34;101099.11;1661300;83;21098;-84
2022/05/03 02:43:56;;;;;;;8.60;6.10;;;;;;;5.63;63.32;101098.05;1663906;84;21138;-85
2022/05/03 02:46:47;;;;;;;10.25;5.90;;;;;;;5.67;63.35;101099.11;1676373;84;21026;-85
2022/05/03 02:49:40;;;;;;;8.40;5.50;;;;;;;5.71;63.36;101102.77;1653746;84;21851;-85
2022/05/03 02:52:28;;;;;;;14.87;6.12;;;;;;;5.74;63.36;101102.48;1641304;84;21356;-86
2022/05/03 02:55:36;;;;;;;9.70;5.97;;;;;;;5.79;63.42;101102.73;1640825;85;22070;-86
2022/05/03 02:58:40;;;;;;;9.75;6.05;;;;;;;5.81;63.39;101103.28;1651612;85;21118;-86
2022/05/03 03:01:50;;;;;;;10.35;5.50;;;;;;;5.84;63.36;101098.22;1660153;85;22058;-86
2022/05/03 03:04:34;;;;;;;7.05;5.87;;;;;;;5.87;63.39;101098.77;1639863;84;21826;-86
2022/05/03 03:07:01;;;;;;;;;;;;;;;5.92;63.47;101095.10;1559735;89;21138;-85
2022/05/03 03:09:44;;;;;;;9.03;5.87;;;;;;;5.96;63.62;101096.65;1568760;90;20239;-86
2022/05/03 03:12:38;;;;;;;9.28;5.92;;;;;;;6.00;63.63;101090.75;1577531;89;22052;-86
2022/05/03 03:15:07;;;;;;;7.35;5.92;;;;;;;6.06;63.64;101096.69;1567849;89;21364;-86
2022/05/03 03:17:42;;;;;;;9.00;5.50;;;;;;;6.12;63.58;101093.47;1567963;90;21802;-86
2022/05/03 03:20:11;;;;;;;11.18;6.10;;;;;;;6.18;63.60;101099.02;1566758;89;21118;-86
2022/05/03 03:22:44;;;;;;;7.97;5.47;;;;;;;6.26;63.63;101105.50;1572712;89;21397;-87
2022/05/03 03:25:13;;;;;;;9.60;6.05;;;;;;;6.34;63.59;101100.64;1576376;88;21135;-86
2022/05/03 03:27:41;;;;;;;9.60;5.65;;;;;;;6.45;63.53;101106.38;1563511;89;21257;-85
2022/05/03 03:30:09;;;;;;;10.53;5.83;;;;;;;6.55;63.50;101100.36;1573884;89;21878;-86
2022/05/03 03:32:41;;;;;;;6.65;5.53;;;;;;;6.68;63.54;101091.37;1579239;88;21662;-86
2022/05/03 03:35:09;;;;;;;9.43;5.53;;;;;;;7.15;64.04;101091.30;1550548;90;21066;-87
2022/05/03 03:37:35;;;;;;;10.50;6.03;;;;;;;8.17;64.14;101093.84;1576405;89;21219;-87
2022/05/03 03:40:07;;;;;;;8.78;5.37;;;;;;;9.15;63.27;101080.95;1576021;89;21119;-87
2022/05/03 03:42:35;;;;;;;7.40;5.30;;;;;;;9.99;61.96;101087.77;1590193;87;23115;-87
2022/05/03 03:45:07;;;;;;;8.70;5.45;;;;;;;10.27;60.45;101090.43;1641809;84;21135;-87
2022/05/03 03:47:32;;;;;;;6.37;4.97;;;;;;;10.57;59.63;101088.31;1639520;84;21103;-86
2022/05/03 03:49:59;;;;;;;7.92;4.95;;;;;;;10.75;58.98;101085.33;1652825;85;21089;-87
2022/05/03 03:52:27;;;;;;;6.85;5.50;;;;;;;10.93;58.34;101087.62;1664293;85;21081;-86
2022/05/03 03:54:57;;;;;;;7.87;5.03;;;;;;;10.94;57.52;101088.06;1663512;84;23100;-89
2022/05/03 03:57:24;;;;;;;9.25;4.95;;;;;;;10.74;57.11;101086.62;1669902;84;21442;-87
2022/05/03 03:59:51;;;;;;;6.67;4.95;;;;;;;10.76;57.25;101084.92;1659467;84;21518;-87
2022/05/03 04:02:19;;;;;;;9.75;5.20;;;;;;;10.97;56.88;101081.58;1657303;84;21536;-87
2022/05/03 04:04:46;;;;;;;8.55;5.22;;;;;;;10.93;56.31;101078.40;1661898;84;21502;-87
2022/05/03 04:07:13;;;;;;;8.83;6.15;;;;;;;10.79;56.10;101085.91;1661582;84;21796;-85
2022/05/03 04:09:40;;;;;;;9.03;5.25;;;;;;;10.66;55.98;101082.02;1677769;84;21169;-85
2022/05/03 04:12:07;;;;;;;8.45;4.83;;;;;;;10.65;56.12;101083.28;1672731;84;21186;-85
2022/05/03 04:14:36;;;;;;;5.92;4.97;;;;;;;11.01;56.36;101079.50;1647591;84;21193;-85
2022/05/03 04:17:03;;;;;;;8.20;4.78;;;;;;;11.44;55.93;101081.12;1671687;83;21070;-85
2022/05/03 04:19:35;;;;;;;9.05;4.85;;;;;;;11.87;55.66;101081.80;1668123;84;21791;-85
2022/05/03 04:22:12;;;;;;;6.80;4.08;;;;;;;12.78;55.77;101076.02;1670386;84;21105;-87
2022/05/03 04:24:27;;;;;;;5.65;3.80;;;;;;;13.92;55.07;101072.87;1668591;83;21610;-86
2022/05/03 04:26:57;;;;;;;7.75;4.10;;;;;;;14.74;53.59;101068.38;1665676;84;21062;-86
2022/05/03 04:29:23;;;;;;;4.15;3.75;;;;;;;15.36;52.74;101067.33;1653025;84;21054;-86
2022/05/03 04:31:50;;;;;;;6.20;4.03;;;;;;;16.48;52.21;101074.03;1650117;85;23230;-87
2022/05/03 04:34:16;;;;;;;6.47;4.20;;;;;;;17.11;50.21;101070.80;1676260;84;21197;-87
2022/05/03 04:36:43;;;;;;;4.72;3.58;;;;;;;17.14;48.93;101068.16;1660418;84;21248;-87
2022/05/03 04:39:10;;;;;;;4.70;3.42;;;;;;;17.10;48.57;101050.41;1658500;84;21129;-87
2022/05/03 04:41:37;;;;;;;5.22;3.37;;;;;;;18.16;48.47;101057.63;1627747;85;21150;-87
2022/05/03 04:44:04;;;;;;;6.42;3.37;;;;;;;19.40;47.59;101069.62;1666037;84;21859;-86
2022/05/03 04:46:31;;;;;;;3.47;3.17;;;;;;;20.30;45.98;101068.48;1653651;84;20986;-86
2022/05/03 04:48:58;;;;;;;5.12;3.15;;;;;;;20.55;45.01;101065.09;1672443;84;21112;-87
2022/05/03 04:51:25;;;;;;;4.72;3.08;;;;;;;21.50;44.41;101065.70;1671270;84;21570;-87
2022/05/03 04:53:55;;;;;;;4.60;3.27;;;;;;;22.61;43.64;101071.85;1647114;85;21094;-87
2022/05/03 04:56:24;;;;;;;4.22;3.02;;;;;;;23.16;41.76;101072.52;1648742;84;21856;-87
2022/05/03 04:58:55;;;;;;;7.12;3.08;;;;;;;21.81;39.99;101070.56;1639665;85;21095;-87
2022/05/03 05:01:20;;;;;;;3.58;2.77;;;;;;;21.70;41.31;101064.94;1651498;84;21227;-87
2022/05/03 05:03:47;;;;;;;5.92;2.58;;;;;;;22.99;41.04;101072.42;1653085;84;21188;-87
2022/05/03 05:06:14;;;;;;;3.62;2.77;;;;;;;22.70;39.02;101059.59;1668617;84;21196;-87
2022/05/03 05:08:43;;;;;;;4.45;2.83;;;;;;;20.91;38.09;101067.83;1665712;84;21798;-88
2022/05/03 05:11:10;;;;;;;4.85;2.83;;;;;;;19.30;38.78;101076.81;1657025;84;21065;-86
2022/05/03 05:13:39;;;;;;;5.53;2.83;;;;;;;18.08;39.27;101078.95;1668156;84;21425;-87
2022/05/03 05:16:07;;;;;;;4.83;3.08;;;;;;;17.07;40.01;101075.21;1642491;85;21019;-86
2022/05/03 05:18:37;;;;;;;6.33;3.15;;;;;;;16.43;40.81;101074.44;1639176;84;21025;-86
2022/05/03 05:21:14;;;;;;;5.83;3.08;;;;;;;15.99;41.36;101074.12;1670108;83;21822;-86
2022/05/03 05:23:41;;;;;;;4.15;2.72;;;;;;;15.71;41.92;101074.75;1646865;84;21146;-86
2022/05/03 05:26:10;;;;;;;4.83;3.12;;;;;;;16.05;42.67;101080.83;1671702;83;21569;-87
2022/05/03 05:28:37;;;;;;;5.28;3.47;;;;;;;16.80;43.31;101075.05;1654229;84;21085;-86
2022/05/03 05:31:06;;;;;;;3.17;2.60;;;;;;;17.87;42.33;101074.52;1656821;83;21014;-87
2022/05/03 05:33:33;;;;;;;4.75;3.37;;;;;;;17.81;41.38;101074.04;1613854;86;21772;-90
2022/05/03 05:36:00;;;;;;;7.83;3.45;;;;;;;17.36;41.24;101083.74;1660884;84;21058;-91
2022/05/03 05:38:29;;;;;;;3.83;3.42;;;;;;;16.82;41.54;101074.23;1659740;84;21025;-91
2022/05/03 05:40:55;;;;;;;5.00;3.62;;;;;;;16.40;41.93;101075.73;1644788;85;21142;-90
2022/05/03 05:43:22;;;;;;;5.83;3.85;;;;;;;16.02;42.20;101083.45;1664433;84;21233;-91
2022/05/03 05:45:49;;;;;;;5.58;3.90;;;;;;;15.71;42.75;101085.37;1657310;83;21815;-90
2022/05/03 05:48:16;;;;;;;4.85;3.55;;;;;;;15.51;43.00;101089.14;1659168;84;21065;-91
2022/05/03 05:50:43;;;;;;;5.35;3.55;;;;;;;15.26;43.37;101088.00;1662146;84;21478;-90
2022/05/03 05:55:55;;;;;;;5.17;4.15;;;;;;;15.02;43.94;101091.70;1642743;84;21080;-91
2022/05/03 05:58:22;;;;;;;8.20;4.22;;;;;;;14.90;44.19;101085.38;1670481;84;22660;-89
2022/05/03 06:00:49;;;;;;;5.95;3.77;;;;;;;14.84;44.54;101095.88;1666807;84;21138;-89
2022/05/03 06:03:16;;;;;;;4.92;4.08;;;;;;;14.82;44.62;101101.59;1654834;84;21113;-90
2022/05/03 06:05:56;;;;;;;6.22;4.20;;;;;;;14.73;44.73;101096.17;1664092;84;21778;-90
2022/05/03 06:08:26;;;;;;;6.58;4.67;;;;;;;14.65;44.97;101094.74;1626483;85;21146;-91
2022/05/03 06:10:57;;;;;;;6.22;4.47;;;;;;;14.55;45.08;101094.14;1637660;86;21835;-90
2022/05/03 06:13:23;;;;;;;5.72;4.67;;;;;;;14.51;45.44;101100.27;1648430;84;21147;-89
2022/05/03 06:15:50;;;;;;;8.78;4.60;;;;;;;14.55;45.63;101097.67;1639770;85;21090;-89
2022/05/03 06:18:19;;;;;;;9.33;5.03;;;;;;;14.64;45.68;101100.02;1643339;85;20984;-89
2022/05/03 06:20:50;;;;;;;8.05;4.70;;;;;;;14.64;45.75;101102.66;1661166;84;21077;-90
2022/05/03 06:23:16;;;;;;;6.50;4.70;;;;;;;14.59;45.82;101103.94;1649444;84;21850;-89
2022/05/03 06:25:44;;;;;;;6.95;4.60;;;;;;;14.49;46.00;101106.86;1639283;85;21065;-90
2022/05/03 06:28:15;;;;;;;7.47;5.12;;;;;;;14.41;46.20;101099.66;1662564;85;21185;-89
2022/05/03 06:30:47;;;;;;;6.60;4.72;;;;;;;14.42;46.35;101097.04;1653400;85;21141;-90
2022/05/03 06:33:14;;;;;;;8.00;4.53;;;;;;;14.41;46.49;101099.22;1650255;84;21109;-90
2022/05/03 06:35:44;;;;;;;6.22;4.60;;;;;;;14.40;46.62;101105.41;1663514;84;21943;-90
2022/05/03 06:38:14;;;;;;;7.85;4.72;;;;;;;14.39;46.78;101107.13;1663273;84;21688;-90
2022/05/03 06:40:46;;;;;;;9.33;4.53;;;;;;;14.35;46.82;101116.34;1664103;84;21622;-89
2022/05/03 06:43:13;;;;;;;7.78;4.67;;;;;;;14.24;47.02;101117.50;1626802;86;21812;-90
2022/05/03 06:45:40;;;;;;;6.08;4.47;;;;;;;14.17;47.15;101114.29;1642653;84;21113;-90
2022/05/03 06:48:12;;;;;;;6.55;4.50;;;;;;;14.10;47.23;101117.73;1641272;84;22574;-90
2022/05/03 06:50:53;;;;;;;5.77;4.40;;;;;;;13.92;47.37;101098.45;1640843;85;21050;-90
2022/05/03 06:53:20;;;;;;;6.92;4.17;;;;;;;14.00;47.45;101123.27;1677078;84;21142;-87
2022/05/03 06:55:48;;;;;;;8.75;4.00;;;;;;;13.94;47.57;101124.50;1636907;84;21090;-88
2022/05/03 06:58:15;;;;;;;7.37;4.05;;;;;;;13.89;47.61;101124.84;1664733;84;21106;-89
2022/05/03 07:00:45;;;;;;;6.08;3.72;;;;;;;13.75;47.68;101132.55;1649285;84;21832;-89
2022/05/03 07:03:13;;;;;;;12.00;4.42;;;;;;;13.70;47.98;101137.77;1639307;85;22361;-89
2022/05/03 07:05:40;;;;;;;6.03;4.37;;;;;;;13.69;48.07;101134.66;1623181;85;21093;-91
2022/05/03 07:08:16;;;;;;;10.25;4.55;;;;;;;13.72;48.10;101139.09;1658798;84;21078;-90
2022/05/03 07:10:44;;;;;;;6.65;4.92;;;;;;;13.72;48.26;101137.77;1646153;85;21095;-87
2022/05/03 07:13:14;;;;;;;7.10;4.42;;;;;;;13.84;48.40;101137.12;1666540;84;21733;-89
2022/05/03 07:15:49;;;;;;;11.03;4.87;;;;;;;14.04;48.46;101133.48;1668764;84;20981;-88
2022/05/03 07:23:47;;;;;;;11.57;5.10;;;;;;;14.75;48.17;101143.45;1684622;83;21112;-88
2022/05/03 07:26:22;;;;;;;10.18;5.12;;;;;;;14.96;48.03;101145.09;1669603;84;21754;-92
2022/05/03 07:28:49;;;;;;;10.10;4.92;;;;;;;15.10;47.70;101144.38;1670586;84;21138;-91
2022/05/03 07:31:16;;;;;;;7.67;4.80;;;;;;;15.17;47.49;101150.21;1658053;84;21198;-88
2022/05/03 07:33:44;;;;;;;6.90;4.47;;;;;;;15.27;47.49;101153.42;1657789;84;21157;-89
2022/05/03 07:36:14;;;;;;;6.05;4.37;;;;;;;15.48;47.55;101154.55;1627972;85;21154;-88
2022/05/03 07:38:45;;;;;;;6.00;4.42;;;;;;;15.84;47.47;101157.16;1642052;84;21881;-89
2022/05/03 07:41:19;;;;;;;9.40;5.30;;;;;;;16.19;47.27;101161.92;1659789;84;21302;-88
2022/05/03 07:43:55;;;;;;;8.48;5.30;;;;;;;16.41;46.89;101166.53;1638260;85;21525;-88
2022/05/03 07:46:22;;;;;;;7.97;5.67;;;;;;;16.55;46.50;101174.59;1646105;84;22127;-88
2022/05/03 07:48:56;;;;;;;10.55;5.37;;;;;;;16.57;46.46;101173.28;1598918;87;21634;-89
2022/05/03 07:52:01;;;;;;;6.42;4.90;;;;;;;16.71;46.57;101175.16;1651289;84;21440;-89
2022/05/03 07:54:29;;;;;;;6.83;5.67;;;;;;;17.01;46.50;101175.38;1666976;84;21149;-88
2022/05/03 07:56:55;;;;;;;7.42;5.72;;;;;;;17.38;46.18;101189.74;1620279;85;21211;-88
2022/05/03 07:59:26;;;;;;;8.68;6.25;;;;;;;17.36;45.57;101191.92;1645810;84;21156;-88
2022/05/03 08:01:54;;;;;;;7.65;5.62;;;;;;;17.21;45.75;101187.01;1655063;84;21094;-89
2022/05/03 08:04:48;;;;;;;8.28;5.58;;;;;;;17.17;45.79;101189.63;1642050;84;21789;-88
2022/05/03 08:07:21;;;;;;;11.15;6.65;;;;;;;17.17;45.73;101196.28;1548408;89;21157;-88
2022/05/03 08:09:54;;;;;;;8.13;5.72;;;;;;;17.12;45.82;101200.67;1588685;88;21718;-90
2022/05/03 08:12:24;;;;;;;6.00;5.37;;;;;;;17.14;45.73;101202.94;1617890;84;21148;-87
2022/05/03 08:15:16;;;;;;;;;;;;;;;;;;;;;
2022/05/03 08:17:43;;;;;;;7.08;6.15;;;;;;;17.10;45.84;101207.34;1609176;86;21168;-87
2022/05/03 08:20:14;;;;;;;9.68;5.60;;;;;;;17.20;45.90;101204.28;1627903;86;21307;-91
2022/05/03 08:22:50;;;;;;;7.60;5.67;;;;;;;17.34;45.81;101207.88;1656815;84;21200;-88
2022/05/03 08:25:37;;;;;;;8.38;5.85;;;;;;;17.54;45.53;101203.98;1673851;84;21087;-88
2022/05/03 08:28:06;;;;;;;8.93;6.30;;;;;;;17.50;45.57;101191.55;1666119;84;21100;-88
2022/05/03 08:30:37;;;;;;;8.03;5.87;;;;;;;17.71;45.29;101216.46;1669553;83;21797;-87
2022/05/03 08:33:06;;;;;;;8.40;5.92;;;;;;;17.74;45.22;101214.70;1651817;84;21101;-87
2022/05/03 08:35:33;;;;;;;7.67;5.83;;;;;;;17.91;45.41;101224.09;1665207;84;21170;-87
2022/05/03 08:43:32;;;;;;;7.25;5.22;;;;;;;18.18;44.65;101230.36;1672193;83;20991;-88
2022/05/03 08:45:58;;;;;;;7.95;5.67;;;;;;;17.95;44.58;101224.55;1662974;84;21152;-88
2022/05/03 08:48:27;;;;;;;8.30;6.00;;;;;;;17.91;44.62;101217.44;1663929;84;21082;-88
2022/05/03 08:50:54;;;;;;;8.10;7.00;;;;;;;18.04;44.57;101225.02;1657161;83;21093;-88
2022/05/03 08:53:21;;;;;;;9.25;6.62;;;;;;;17.99;44.66;101222.78;1650469;85;21512;-88
2022/05/03 08:55:50;;;;;;;8.85;8.00;;;;;;;17.94;43.97;101228.08;1615390;86;21860;-88
2022/05/03 08:58:18;;;;;;;9.80;8.33;;;;;;;17.53;44.06;101236.82;1684334;84;21086;-88
2022/05/03 09:00:49;;;;;;;10.15;6.90;;;;;;;17.18;44.57;101241.52;1679730;84;21276;-87
2022/05/03 09:03:15;;;;;;;7.40;6.05;;;;;;;17.09;45.00;101242.34;1613301;85;21308;-88
2022/05/03 09:05:42;;;;;;;8.15;6.75;;;;;;;17.22;45.11;101231.78;1652302;84;21133;-88
2022/05/03 09:08:21;;;;;;;7.55;6.12;;;;;;;17.38;45.12;101242.96;1671764;83;21971;-89
2022/05/03 09:10:50;;;;;;;6.67;5.87;;;;;;;17.34;44.93;101245.58;1675458;83;21076;-88
2022/05/03 09:13:23;;;;;;;8.70;6.55;;;;;;;17.36;45.11;101243.81;1667549;83;21233;-88
2022/05/03 09:15:57;;;;;;;6.47;5.60;;;;;;;17.35;45.02;101241.60;1676836;83;21124;-88
2022/05/03 09:18:26;;;;;;;6.78;5.85;;;;;;;17.37;45.07;101241.17;1667132;83;21241;-88
2022/05/03 09:23:48;;;;;;;8.25;5.90;;;;;;;17.51;45.24;101245.20;1640347;83;21229;-88
2022/05/03 09:26:26;;;;;;;7.50;6.03;;;;;;;17.78;45.04;101239.56;1667784;84;21687;-88
2022/05/03 09:29:14;;;;;;;6.70;5.30;;;;;;;17.77;44.62;101237.77;1658325;84;21077;-88
2022/05/03 09:31:48;;;;;;;8.68;5.40;;;;;;;17.70;44.79;101238.21;1636728;84;21608;-87
2022/05/03 09:34:25;;;;;;;7.20;5.70;;;;;;;17.68;44.46;101246.61;1645778;85;22474;-87
2022/05/03 09:37:02;;;;;;;7.90;6.28;;;;;;;17.35;44.27;101250.03;1647381;84;21096;-88
2022/05/03 09:39:36;;;;;;;6.92;5.05;;;;;;;16.95;44.88;101249.78;1650296;85;21154;-88
2022/05/03 09:42:19;;;;;;;5.37;4.45;;;;;;;16.86;45.34;101254.61;1644058;84;21509;-88
2022/05/03 09:45:00;;;;;;;8.85;5.37;;;;;;;16.74;45.67;101255.36;1615914;86;21674;-88
2022/05/03 09:47:31;;;;;;;8.83;5.78;;;;;;;16.52;45.85;101255.19;1639553;84;21819;-88
2022/05/03 09:49:58;;;;;;;7.53;5.55;;;;;;;16.62;46.20;101248.19;1656329;84;21714;-88
2022/05/03 09:52:36;;;;;;;8.43;5.30;;;;;;;16.79;46.29;101247.44;1648735;84;21573;-88
2022/05/03 09:55:07;;;;;;;7.65;5.12;;;;;;;17.00;46.26;101242.73;1635490;85;22305;-88
2022/05/03 09:57:45;;;;;;;6.22;5.62;;;;;;;17.33;46.30;101242.04;1661809;84;21434;-88
2022/05/03 10:00:17;;;;;;;8.70;5.28;;;;;;;17.64;46.14;101245.73;1668235;83;21629;-87
2022/05/03 10:02:45;;;;;;;6.25;5.10;;;;;;;17.80;45.84;101243.13;1665957;83;21066;-88
2022/05/03 10:05:12;;;;;;;7.15;5.47;;;;;;;17.71;45.37;101249.74;1653399;84;21113;-87
2022/05/03 10:07:43;;;;;;;5.87;5.05;;;;;;;17.61;45.43;101252.37;1646817;84;21145;-89
2022/05/03 10:10:12;;;;;;;7.25;5.62;;;;;;;17.54;45.11;101249.23;1654423;84;21173;-89
2022/05/03 10:12:40;;;;;;;7.40;5.55;;;;;;;17.40;45.39;101247.84;1641446;84;21815;-89
2022/05/03 10:15:13;;;;;;;7.97;5.03;;;;;;;17.33;45.31;101253.13;1627805;84;21044;-89
2022/05/03 10:20:43;;;;;;;7.03;5.40;;;;;;;17.23;45.74;101259.73;1661163;84;21147;-88
2022/05/03 10:23:31;;;;;;;7.12;5.58;;;;;;;17.18;45.85;101258.80;1636728;84;21153;-87
2022/05/03 10:26:06;;;;;;;6.37;5.08;;;;;;;17.09;45.98;101271.59;1661084;84;22192;-88
2022/05/03 10:29:02;;;;;;;9.43;6.67;;;;;;;16.76;46.14;101276.23;1613410;84;21533;-88
2022/05/03 10:34:45;;;;;;;10.43;7.08;;;;;;;16.19;47.78;101286.31;1661119;84;21130;-87
2022/05/03 10:37:19;;;;;;;8.38;6.67;;;;;;;15.75;48.60;101288.04;1659322;84;21184;-88
2022/05/03 10:40:01;;;;;;;9.10;7.60;;;;;;;15.37;49.34;101287.04;1633315;85;22235;-88
2022/05/03 10:42:29;;;;;;;11.25;10.05;;;;;;;15.06;50.22;101292.36;1594036;86;21129;-89
2022/05/03 10:45:03;;;;;;;12.37;11.10;;;;;;;14.74;50.84;101292.73;1623835;85;21074;-89
2022/05/03 10:47:54;;;;;;;13.98;10.00;;;;;;;14.70;51.77;101299.73;1660986;84;21714;-90
2022/05/03 10:50:33;;;;;;;12.60;9.83;;;;;;;14.69;52.32;101295.73;1642568;84;21118;-88
2022/05/03 10:53:09;;;;;;;11.95;8.88;;;;;;;14.58;52.62;101298.19;1575733;87;21591;-89
2022/05/03 10:55:41;;;;;;;9.10;7.30;;;;;;;14.56;53.26;101299.89;1622021;85;21606;-87
2022/05/03 10:58:29;;;;;;;6.95;5.00;;;;;;;14.56;53.37;101303.86;1630074;85;21193;-87
2022/05/03 11:01:20;;;;;;;6.08;5.28;;;;;;;14.53;53.33;101302.50;1594710;85;21880;-87
2022/05/03 11:03:59;;;;;;;;;;;;;;;;;;;;;
2022/05/03 11:06:41;;;;;;;6.87;5.20;;;;;;;14.20;54.20;101279.83;1614444;86;21823;-88
2022/05/03 11:09:48;;;;;;;7.37;6.45;;;;;;;14.35;54.72;101312.32;1613360;86;21181;-89
2022/05/03 11:12:48;;;;;;;5.30;4.80;;;;;;;14.31;55.00;101306.07;1584395;87;21175;-88
2022/05/03 11:15:15;;;;;;;5.53;4.90;;;;;;;14.34;55.36;101311.44;1581307;86;21157;-88
2022/05/03 11:18:23;;;;;;;7.22;5.60;;;;;;;14.42;55.87;101308.05;1665428;84;21175;-89
2022/05/03 11:21:34;;;;;;;7.35;5.92;;;;;;;14.53;56.12;101306.03;1668326;84;22057;-89
2022/05/03 11:24:25;;;;;;;6.50;5.87;;;;;;;14.70;56.33;101308.13;1575670;84;21603;-88
2022/05/03 11:27:05;;;;;;;8.28;6.37;;;;;;;14.82;56.38;101304.34;1623409;85;21645;-87
2022/05/03 11:29:51;;;;;;;8.20;6.42;;;;;;;14.87;56.28;101307.97;1613841;86;21117;-88
2022/05/03 11:32:19;;;;;;;9.45;6.83;;;;;;;14.90;56.37;101304.45;1622799;85;21695;-92
2022/05/03 11:35:01;;;;;;;;;;;;;;;;;;;;;
2022/05/03 11:37:20;;;;;;;9.83;7.90;;;;;;;14.95;56.37;101301.45;1655388;84;21069;-88
2022/05/03 11:39:47;;;;;;;8.25;7.42;;;;;;;14.93;56.43;101305.41;1650505;84;21066;-88
2022/05/03 11:44:43;;;;;;;7.50;6.30;;;;;;;14.88;56.41;101304.87;1663601;84;21142;-88
2022/05/03 11:47:13;;;;;;;8.80;6.30;;;;;;;14.87;56.46;101307.08;1648117;84;21859;-88
2022/05/03 11:49:43;;;;;;;7.75;6.20;;;;;;;14.87;56.45;101301.34;1624702;84;21061;-87
2022/05/03 11:58:02;;;;;;;7.17;5.95;;;;;;;15.00;56.44;101310.80;1657961;83;21513;-89
2022/05/03 12:00:49;;;;;;;8.23;5.90;;;;;;;15.13;56.29;101312.35;1665110;83;21740;-88
2022/05/03 12:03:16;;;;;;;9.95;5.58;;;;;;;15.27;55.90;101317.85;1657417;83;21619;-89
2022/05/03 12:06:05;;;;;;;5.67;5.12;;;;;;;15.40;55.96;101300.80;1658688;83;21058;-88
2022/05/03 12:08:34;;;;;;;6.97;5.67;;;;;;;15.65;55.59;101312.63;1649182;84;21542;-89
2022/05/03 12:11:01;;;;;;;6.80;5.10;;;;;;;15.73;55.02;101311.90;1663378;83;21148;-87
2022/05/03 12:13:40;;;;;;;6.15;4.40;;;;;;;15.86;55.25;101312.95;1662886;83;21782;-88
2022/05/03 12:16:34;;;;;;;;;;;;;;;;;;;;;
2022/05/03 12:18:51;;;;;;;5.97;3.80;;;;;;;16.16;54.19;101312.86;1636689;83;22123;-88
2022/05/03 12:21:24;;;;;;;;;;;;;;;16.18;54.24;101309.78;1673824;83;21782;-87
2022/05/03 12:24:07;;;;;;;5.08;3.90;;;;;;;16.31;53.94;101307.70;1666080;83;20237;-87
2022/05/03 12:26:40;;;;;;;4.33;3.92;;;;;;;16.41;53.84;101308.68;1659062;83;21893;-88
2022/05/03 12:29:11;;;;;;;5.00;4.17;;;;;;;16.70;53.85;101310.30;1667097;83;21013;-93
2022/05/03 12:31:41;;;;;;;5.28;4.10;;;;;;;16.97;53.50;101305.19;1670273;83;21104;-87
2022/05/03 12:34:32;;;;;;;4.42;4.03;;;;;;;17.16;53.01;101299.59;1664342;83;21201;-88
2022/05/03 12:37:09;;;;;;;5.10;3.60;;;;;;;17.39;52.76;101305.05;1535479;91;21147;-88
2022/05/03 12:39:38;;;;;;;5.58;3.80;;;;;;;17.51;52.02;101290.91;1620002;84;22339;-88
2022/05/03 12:42:17;;;;;;;3.67;3.35;;;;;;;17.53;51.70;101290.47;1630958;83;21113;-88